sensor_id;sensor_type;location;lat;lon;timestamp;P1;durP1;ratioP1;P2;durP2;ratioP2
75459;SDS011;64039;53.060;9.342;2024-02-26T00:00:26;5.97;;;3.42;;
75459;SDS011;64039;53.060;9.342;2024-02-26T00:02:51;4.53;;;3.00;;
75459;SDS011;64039;53.060;9.342;2024-02-26T00:05:17;4.75;;;3.38;;
75459;SDS011;64039;53.060;9.342;2024-02-26T00:07:42;3.83;;;3.10;;
75459;SDS011;64039;53.060;9.342;2024-02-26T00:10:08;6.15;;;3.80;;
75459;SDS011;64039;53.060;9.342;2024-02-26T00:12:34;4.60;;;3.53;;
75459;SDS011;64039;53.060;9.342;2024-02-26T00:14:59;4.50;;;3.22;;
75459;SDS011;64039;53.060;9.342;2024-02-26T00:17:24;5.07;;;3.10;;
75459;SDS011;64039;53.060;9.342;2024-02-26T00:19:50;4.60;;;3.50;;
75459;SDS011;64039;53.060;9.342;2024-02-26T00:22:15;7.32;;;3.92;;
75459;SDS011;64039;53.060;9.342;2024-02-26T00:24:41;4.88;;;3.50;;
75459;SDS011;64039;53.060;9.342;2024-02-26T00:27:06;4.28;;;3.40;;
75459;SDS011;64039;53.060;9.342;2024-02-26T00:29:32;6.10;;;3.17;;
75459;SDS011;64039;53.060;9.342;2024-02-26T00:31:57;5.35;;;3.08;;
75459;SDS011;64039;53.060;9.342;2024-02-26T00:34:23;6.47;;;3.47;;
75459;SDS011;64039;53.060;9.342;2024-02-26T00:36:49;5.05;;;2.97;;
75459;SDS011;64039;53.060;9.342;2024-02-26T00:39:14;4.60;;;3.33;;
75459;SDS011;64039;53.060;9.342;2024-02-26T00:41:40;5.93;;;3.13;;
75459;SDS011;64039;53.060;9.342;2024-02-26T00:44:06;4.18;;;3.15;;
75459;SDS011;64039;53.060;9.342;2024-02-26T00:46:31;17.90;;;2.92;;
75459;SDS011;64039;53.060;9.342;2024-02-26T00:48:57;6.15;;;3.53;;
75459;SDS011;64039;53.060;9.342;2024-02-26T00:51:23;5.70;;;3.95;;
75459;SDS011;64039;53.060;9.342;2024-02-26T00:53:48;4.90;;;3.50;;
75459;SDS011;64039;53.060;9.342;2024-02-26T00:56:13;5.03;;;3.63;;
75459;SDS011;64039;53.060;9.342;2024-02-26T00:58:39;6.55;;;4.13;;
75459;SDS011;64039;53.060;9.342;2024-02-26T01:01:04;5.72;;;4.10;;
75459;SDS011;64039;53.060;9.342;2024-02-26T01:03:30;5.13;;;3.50;;
75459;SDS011;64039;53.060;9.342;2024-02-26T01:05:55;5.85;;;3.97;;
75459;SDS011;64039;53.060;9.342;2024-02-26T01:08:20;6.32;;;4.13;;
75459;SDS011;64039;53.060;9.342;2024-02-26T01:10:46;5.40;;;3.80;;
75459;SDS011;64039;53.060;9.342;2024-02-26T01:13:11;5.65;;;4.00;;
75459;SDS011;64039;53.060;9.342;2024-02-26T01:15:37;7.40;;;3.95;;
75459;SDS011;64039;53.060;9.342;2024-02-26T01:18:02;5.78;;;3.90;;
75459;SDS011;64039;53.060;9.342;2024-02-26T01:20:28;5.93;;;4.38;;
75459;SDS011;64039;53.060;9.342;2024-02-26T01:22:53;7.32;;;4.63;;
75459;SDS011;64039;53.060;9.342;2024-02-26T01:25:18;5.38;;;3.85;;
75459;SDS011;64039;53.060;9.342;2024-02-26T01:27:44;6.00;;;4.03;;
75459;SDS011;64039;53.060;9.342;2024-02-26T01:30:10;5.40;;;4.00;;
75459;SDS011;64039;53.060;9.342;2024-02-26T01:32:36;4.95;;;3.45;;
75459;SDS011;64039;53.060;9.342;2024-02-26T01:35:01;5.68;;;4.07;;
75459;SDS011;64039;53.060;9.342;2024-02-26T01:37:28;5.70;;;4.03;;
75459;SDS011;64039;53.060;9.342;2024-02-26T01:39:55;6.50;;;4.00;;
75459;SDS011;64039;53.060;9.342;2024-02-26T01:42:20;5.95;;;4.20;;
75459;SDS011;64039;53.060;9.342;2024-02-26T01:44:46;5.78;;;3.95;;
75459;SDS011;64039;53.060;9.342;2024-02-26T01:47:11;4.78;;;3.88;;
75459;SDS011;64039;53.060;9.342;2024-02-26T01:49:38;5.68;;;3.70;;
75459;SDS011;64039;53.060;9.342;2024-02-26T01:52:04;4.72;;;3.55;;
75459;SDS011;64039;53.060;9.342;2024-02-26T01:54:31;5.57;;;3.83;;
75459;SDS011;64039;53.060;9.342;2024-02-26T01:57:00;4.75;;;3.40;;
75459;SDS011;64039;53.060;9.342;2024-02-26T01:59:27;4.78;;;3.20;;
75459;SDS011;64039;53.060;9.342;2024-02-26T02:01:54;4.97;;;3.50;;
75459;SDS011;64039;53.060;9.342;2024-02-26T02:04:22;6.20;;;3.63;;
75459;SDS011;64039;53.060;9.342;2024-02-26T02:06:48;3.97;;;3.40;;
75459;SDS011;64039;53.060;9.342;2024-02-26T02:09:14;7.57;;;3.85;;
75459;SDS011;64039;53.060;9.342;2024-02-26T02:11:40;5.57;;;3.78;;
75459;SDS011;64039;53.060;9.342;2024-02-26T02:14:06;4.60;;;3.70;;
75459;SDS011;64039;53.060;9.342;2024-02-26T02:16:31;5.10;;;3.53;;
75459;SDS011;64039;53.060;9.342;2024-02-26T02:18:57;5.22;;;2.97;;
75459;SDS011;64039;53.060;9.342;2024-02-26T02:21:23;6.20;;;3.80;;
75459;SDS011;64039;53.060;9.342;2024-02-26T02:23:49;4.03;;;3.28;;
75459;SDS011;64039;53.060;9.342;2024-02-26T02:26:14;4.93;;;3.35;;
75459;SDS011;64039;53.060;9.342;2024-02-26T02:28:40;4.90;;;3.45;;
75459;SDS011;64039;53.060;9.342;2024-02-26T02:31:06;5.80;;;3.80;;
75459;SDS011;64039;53.060;9.342;2024-02-26T02:33:33;5.47;;;3.63;;
75459;SDS011;64039;53.060;9.342;2024-02-26T02:35:59;4.25;;;3.50;;
75459;SDS011;64039;53.060;9.342;2024-02-26T02:38:25;4.85;;;3.63;;
75459;SDS011;64039;53.060;9.342;2024-02-26T02:40:54;6.80;;;3.60;;
75459;SDS011;64039;53.060;9.342;2024-02-26T02:43:19;5.45;;;3.85;;
75459;SDS011;64039;53.060;9.342;2024-02-26T02:45:45;5.63;;;3.45;;
75459;SDS011;64039;53.060;9.342;2024-02-26T02:48:10;5.03;;;3.33;;
75459;SDS011;64039;53.060;9.342;2024-02-26T02:50:36;5.32;;;3.80;;
75459;SDS011;64039;53.060;9.342;2024-02-26T02:53:01;5.75;;;4.07;;
75459;SDS011;64039;53.060;9.342;2024-02-26T02:55:27;4.88;;;3.17;;
75459;SDS011;64039;53.060;9.342;2024-02-26T02:57:53;4.15;;;3.13;;
75459;SDS011;64039;53.060;9.342;2024-02-26T03:00:18;6.50;;;3.75;;
75459;SDS011;64039;53.060;9.342;2024-02-26T03:02:44;5.03;;;3.40;;
75459;SDS011;64039;53.060;9.342;2024-02-26T03:05:10;4.13;;;3.28;;
75459;SDS011;64039;53.060;9.342;2024-02-26T03:07:35;4.72;;;3.50;;
75459;SDS011;64039;53.060;9.342;2024-02-26T03:10:01;7.03;;;3.67;;
75459;SDS011;64039;53.060;9.342;2024-02-26T03:12:26;4.80;;;3.38;;
75459;SDS011;64039;53.060;9.342;2024-02-26T03:14:53;6.00;;;4.13;;
75459;SDS011;64039;53.060;9.342;2024-02-26T03:17:19;4.78;;;3.33;;
75459;SDS011;64039;53.060;9.342;2024-02-26T03:19:46;5.63;;;3.78;;
75459;SDS011;64039;53.060;9.342;2024-02-26T03:22:12;5.55;;;3.88;;
75459;SDS011;64039;53.060;9.342;2024-02-26T03:24:38;6.00;;;4.10;;
75459;SDS011;64039;53.060;9.342;2024-02-26T03:27:04;6.70;;;4.40;;
75459;SDS011;64039;53.060;9.342;2024-02-26T03:29:34;6.32;;;4.45;;
75459;SDS011;64039;53.060;9.342;2024-02-26T03:32:02;6.80;;;4.18;;
75459;SDS011;64039;53.060;9.342;2024-02-26T03:34:28;6.68;;;4.85;;
75459;SDS011;64039;53.060;9.342;2024-02-26T03:36:55;6.28;;;4.50;;
75459;SDS011;64039;53.060;9.342;2024-02-26T03:39:20;6.60;;;4.32;;
75459;SDS011;64039;53.060;9.342;2024-02-26T03:41:47;6.35;;;4.35;;
75459;SDS011;64039;53.060;9.342;2024-02-26T03:44:13;6.15;;;4.30;;
75459;SDS011;64039;53.060;9.342;2024-02-26T03:46:38;4.97;;;3.95;;
75459;SDS011;64039;53.060;9.342;2024-02-26T03:49:04;5.30;;;3.97;;
75459;SDS011;64039;53.060;9.342;2024-02-26T03:51:29;5.15;;;3.90;;
75459;SDS011;64039;53.060;9.342;2024-02-26T03:53:57;7.30;;;3.95;;
75459;SDS011;64039;53.060;9.342;2024-02-26T03:56:23;6.80;;;3.95;;
75459;SDS011;64039;53.060;9.342;2024-02-26T03:58:49;5.82;;;3.70;;
75459;SDS011;64039;53.060;9.342;2024-02-26T04:01:14;5.10;;;3.60;;
75459;SDS011;64039;53.060;9.342;2024-02-26T04:03:40;4.32;;;3.33;;
75459;SDS011;64039;53.060;9.342;2024-02-26T04:06:08;5.22;;;3.20;;
75459;SDS011;64039;53.060;9.342;2024-02-26T04:08:35;5.75;;;3.88;;
75459;SDS011;64039;53.060;9.342;2024-02-26T04:11:00;3.97;;;3.17;;
75459;SDS011;64039;53.060;9.342;2024-02-26T04:13:26;4.45;;;3.25;;
75459;SDS011;64039;53.060;9.342;2024-02-26T04:15:51;4.95;;;3.45;;
75459;SDS011;64039;53.060;9.342;2024-02-26T04:18:16;8.65;;;4.05;;
75459;SDS011;64039;53.060;9.342;2024-02-26T04:20:42;5.30;;;3.63;;
75459;SDS011;64039;53.060;9.342;2024-02-26T04:23:07;5.80;;;4.03;;
75459;SDS011;64039;53.060;9.342;2024-02-26T04:25:33;7.18;;;4.05;;
75459;SDS011;64039;53.060;9.342;2024-02-26T04:27:58;5.72;;;3.72;;
75459;SDS011;64039;53.060;9.342;2024-02-26T04:30:24;7.78;;;4.82;;
75459;SDS011;64039;53.060;9.342;2024-02-26T04:32:49;6.95;;;4.40;;
75459;SDS011;64039;53.060;9.342;2024-02-26T04:35:14;8.27;;;4.47;;
75459;SDS011;64039;53.060;9.342;2024-02-26T04:37:40;6.88;;;4.63;;
75459;SDS011;64039;53.060;9.342;2024-02-26T04:40:05;6.32;;;4.15;;
75459;SDS011;64039;53.060;9.342;2024-02-26T04:42:31;6.07;;;4.22;;
75459;SDS011;64039;53.060;9.342;2024-02-26T04:44:56;7.43;;;4.60;;
75459;SDS011;64039;53.060;9.342;2024-02-26T04:47:22;6.10;;;4.53;;
75459;SDS011;64039;53.060;9.342;2024-02-26T04:49:50;5.10;;;3.75;;
75459;SDS011;64039;53.060;9.342;2024-02-26T04:52:16;6.53;;;4.57;;
75459;SDS011;64039;53.060;9.342;2024-02-26T04:54:41;5.43;;;4.00;;
75459;SDS011;64039;53.060;9.342;2024-02-26T04:57:07;5.28;;;4.07;;
75459;SDS011;64039;53.060;9.342;2024-02-26T04:59:32;5.53;;;3.78;;
75459;SDS011;64039;53.060;9.342;2024-02-26T05:01:57;6.32;;;3.88;;
75459;SDS011;64039;53.060;9.342;2024-02-26T05:04:23;6.53;;;4.20;;
75459;SDS011;64039;53.060;9.342;2024-02-26T05:06:48;5.22;;;4.22;;
75459;SDS011;64039;53.060;9.342;2024-02-26T05:09:14;5.60;;;4.18;;
75459;SDS011;64039;53.060;9.342;2024-02-26T05:11:39;5.90;;;4.00;;
75459;SDS011;64039;53.060;9.342;2024-02-26T05:14:05;5.15;;;3.75;;
75459;SDS011;64039;53.060;9.342;2024-02-26T05:16:30;5.50;;;4.07;;
75459;SDS011;64039;53.060;9.342;2024-02-26T05:18:56;5.90;;;3.75;;
75459;SDS011;64039;53.060;9.342;2024-02-26T05:21:22;6.10;;;4.05;;
75459;SDS011;64039;53.060;9.342;2024-02-26T05:23:48;5.10;;;3.63;;
75459;SDS011;64039;53.060;9.342;2024-02-26T05:26:19;5.05;;;3.63;;
75459;SDS011;64039;53.060;9.342;2024-02-26T05:28:48;6.43;;;3.55;;
75459;SDS011;64039;53.060;9.342;2024-02-26T05:31:14;5.47;;;4.00;;
75459;SDS011;64039;53.060;9.342;2024-02-26T05:33:39;6.43;;;3.85;;
75459;SDS011;64039;53.060;9.342;2024-02-26T05:36:05;7.88;;;4.00;;
75459;SDS011;64039;53.060;9.342;2024-02-26T05:38:31;6.13;;;4.20;;
75459;SDS011;64039;53.060;9.342;2024-02-26T05:40:57;7.38;;;4.05;;
75459;SDS011;64039;53.060;9.342;2024-02-26T05:43:24;5.72;;;3.70;;
75459;SDS011;64039;53.060;9.342;2024-02-26T05:45:50;5.30;;;3.75;;
75459;SDS011;64039;53.060;9.342;2024-02-26T05:48:15;5.93;;;3.90;;
75459;SDS011;64039;53.060;9.342;2024-02-26T05:50:45;5.57;;;3.95;;
75459;SDS011;64039;53.060;9.342;2024-02-26T05:53:11;6.25;;;3.97;;
75459;SDS011;64039;53.060;9.342;2024-02-26T05:55:40;8.07;;;5.20;;
75459;SDS011;64039;53.060;9.342;2024-02-26T05:58:06;8.45;;;5.38;;
75459;SDS011;64039;53.060;9.342;2024-02-26T06:00:32;8.93;;;5.53;;
75459;SDS011;64039;53.060;9.342;2024-02-26T06:03:01;9.48;;;6.18;;
75459;SDS011;64039;53.060;9.342;2024-02-26T06:05:27;10.35;;;6.50;;
75459;SDS011;64039;53.060;9.342;2024-02-26T06:07:52;11.65;;;7.15;;
75459;SDS011;64039;53.060;9.342;2024-02-26T06:10:20;11.60;;;7.07;;
75459;SDS011;64039;53.060;9.342;2024-02-26T06:12:46;13.05;;;6.95;;
75459;SDS011;64039;53.060;9.342;2024-02-26T06:15:12;11.70;;;7.32;;
75459;SDS011;64039;53.060;9.342;2024-02-26T06:17:38;13.57;;;8.13;;
75459;SDS011;64039;53.060;9.342;2024-02-26T06:20:03;13.20;;;7.72;;
75459;SDS011;64039;53.060;9.342;2024-02-26T06:22:31;10.55;;;7.10;;
75459;SDS011;64039;53.060;9.342;2024-02-26T06:24:57;13.27;;;7.65;;
75459;SDS011;64039;53.060;9.342;2024-02-26T06:27:22;13.80;;;8.55;;
75459;SDS011;64039;53.060;9.342;2024-02-26T06:29:49;14.48;;;7.75;;
75459;SDS011;64039;53.060;9.342;2024-02-26T06:32:14;13.70;;;8.73;;
75459;SDS011;64039;53.060;9.342;2024-02-26T06:34:40;14.20;;;8.32;;
75459;SDS011;64039;53.060;9.342;2024-02-26T06:37:07;14.23;;;8.45;;
75459;SDS011;64039;53.060;9.342;2024-02-26T06:39:33;14.38;;;7.85;;
75459;SDS011;64039;53.060;9.342;2024-02-26T06:41:58;14.20;;;8.55;;
75459;SDS011;64039;53.060;9.342;2024-02-26T06:44:26;17.95;;;9.02;;
75459;SDS011;64039;53.060;9.342;2024-02-26T06:46:57;14.90;;;8.50;;
75459;SDS011;64039;53.060;9.342;2024-02-26T06:49:26;14.27;;;8.68;;
75459;SDS011;64039;53.060;9.342;2024-02-26T06:51:52;12.95;;;8.15;;
75459;SDS011;64039;53.060;9.342;2024-02-26T06:54:18;16.58;;;10.02;;
75459;SDS011;64039;53.060;9.342;2024-02-26T06:56:43;15.45;;;9.02;;
75459;SDS011;64039;53.060;9.342;2024-02-26T06:59:09;13.93;;;8.32;;
75459;SDS011;64039;53.060;9.342;2024-02-26T07:01:34;15.40;;;8.68;;
75459;SDS011;64039;53.060;9.342;2024-02-26T07:04:00;12.85;;;7.97;;
75459;SDS011;64039;53.060;9.342;2024-02-26T07:06:26;16.05;;;8.30;;
75459;SDS011;64039;53.060;9.342;2024-02-26T07:08:52;11.85;;;8.00;;
75459;SDS011;64039;53.060;9.342;2024-02-26T07:11:18;13.25;;;8.27;;
75459;SDS011;64039;53.060;9.342;2024-02-26T07:13:45;15.25;;;8.45;;
75459;SDS011;64039;53.060;9.342;2024-02-26T07:16:11;13.80;;;8.73;;
75459;SDS011;64039;53.060;9.342;2024-02-26T07:18:36;13.52;;;8.27;;
75459;SDS011;64039;53.060;9.342;2024-02-26T07:21:02;14.20;;;8.93;;
75459;SDS011;64039;53.060;9.342;2024-02-26T07:23:28;14.30;;;8.20;;
75459;SDS011;64039;53.060;9.342;2024-02-26T07:25:54;13.95;;;8.50;;
75459;SDS011;64039;53.060;9.342;2024-02-26T07:28:19;15.30;;;9.15;;
75459;SDS011;64039;53.060;9.342;2024-02-26T07:30:45;13.25;;;8.13;;
75459;SDS011;64039;53.060;9.342;2024-02-26T07:33:10;13.57;;;8.15;;
75459;SDS011;64039;53.060;9.342;2024-02-26T07:35:36;15.52;;;8.55;;
75459;SDS011;64039;53.060;9.342;2024-02-26T07:38:03;16.90;;;9.07;;
75459;SDS011;64039;53.060;9.342;2024-02-26T07:40:29;14.32;;;8.77;;
75459;SDS011;64039;53.060;9.342;2024-02-26T07:42:55;14.23;;;9.10;;
75459;SDS011;64039;53.060;9.342;2024-02-26T07:45:21;14.75;;;8.45;;
75459;SDS011;64039;53.060;9.342;2024-02-26T07:47:46;14.57;;;8.70;;
75459;SDS011;64039;53.060;9.342;2024-02-26T07:50:12;13.85;;;8.02;;
75459;SDS011;64039;53.060;9.342;2024-02-26T07:52:38;13.05;;;8.57;;
75459;SDS011;64039;53.060;9.342;2024-02-26T07:55:04;13.13;;;8.32;;
75459;SDS011;64039;53.060;9.342;2024-02-26T07:57:30;11.85;;;7.72;;
75459;SDS011;64039;53.060;9.342;2024-02-26T07:59:56;13.30;;;7.90;;
75459;SDS011;64039;53.060;9.342;2024-02-26T08:02:21;14.90;;;7.88;;
75459;SDS011;64039;53.060;9.342;2024-02-26T08:04:47;13.68;;;7.85;;
75459;SDS011;64039;53.060;9.342;2024-02-26T08:07:12;12.90;;;8.18;;
75459;SDS011;64039;53.060;9.342;2024-02-26T08:09:38;16.67;;;9.05;;
75459;SDS011;64039;53.060;9.342;2024-02-26T08:12:03;12.15;;;7.45;;
75459;SDS011;64039;53.060;9.342;2024-02-26T08:14:29;13.20;;;7.57;;
75459;SDS011;64039;53.060;9.342;2024-02-26T08:16:54;11.88;;;7.43;;
75459;SDS011;64039;53.060;9.342;2024-02-26T08:19:20;12.48;;;7.50;;
75459;SDS011;64039;53.060;9.342;2024-02-26T08:21:45;13.55;;;7.88;;
75459;SDS011;64039;53.060;9.342;2024-02-26T08:24:11;12.18;;;7.57;;
75459;SDS011;64039;53.060;9.342;2024-02-26T08:26:36;12.60;;;7.70;;
75459;SDS011;64039;53.060;9.342;2024-02-26T08:29:02;12.32;;;7.68;;
75459;SDS011;64039;53.060;9.342;2024-02-26T08:31:27;11.52;;;7.15;;
75459;SDS011;64039;53.060;9.342;2024-02-26T08:33:53;14.55;;;7.70;;
75459;SDS011;64039;53.060;9.342;2024-02-26T08:36:18;12.98;;;8.00;;
75459;SDS011;64039;53.060;9.342;2024-02-26T08:38:44;13.13;;;8.27;;
75459;SDS011;64039;53.060;9.342;2024-02-26T08:41:09;12.25;;;7.90;;
75459;SDS011;64039;53.060;9.342;2024-02-26T08:43:35;12.00;;;7.88;;
75459;SDS011;64039;53.060;9.342;2024-02-26T08:46:01;14.02;;;8.25;;
75459;SDS011;64039;53.060;9.342;2024-02-26T08:48:26;12.20;;;8.10;;
75459;SDS011;64039;53.060;9.342;2024-02-26T08:50:51;14.88;;;8.50;;
75459;SDS011;64039;53.060;9.342;2024-02-26T08:53:17;14.05;;;8.77;;
75459;SDS011;64039;53.060;9.342;2024-02-26T08:55:42;17.30;;;9.25;;
75459;SDS011;64039;53.060;9.342;2024-02-26T08:58:08;13.93;;;8.98;;
75459;SDS011;64039;53.060;9.342;2024-02-26T09:00:33;16.15;;;8.80;;
75459;SDS011;64039;53.060;9.342;2024-02-26T09:02:59;14.02;;;9.25;;
75459;SDS011;64039;53.060;9.342;2024-02-26T09:05:24;13.70;;;8.88;;
75459;SDS011;64039;53.060;9.342;2024-02-26T09:07:50;15.55;;;9.10;;
75459;SDS011;64039;53.060;9.342;2024-02-26T09:10:17;14.80;;;8.40;;
75459;SDS011;64039;53.060;9.342;2024-02-26T09:12:42;15.07;;;8.23;;
75459;SDS011;64039;53.060;9.342;2024-02-26T09:15:08;12.82;;;8.15;;
75459;SDS011;64039;53.060;9.342;2024-02-26T09:17:33;13.93;;;9.13;;
75459;SDS011;64039;53.060;9.342;2024-02-26T09:19:59;14.30;;;8.85;;
75459;SDS011;64039;53.060;9.342;2024-02-26T09:22:25;14.35;;;8.73;;
75459;SDS011;64039;53.060;9.342;2024-02-26T09:24:50;14.82;;;8.88;;
75459;SDS011;64039;53.060;9.342;2024-02-26T09:27:17;13.95;;;8.60;;
75459;SDS011;64039;53.060;9.342;2024-02-26T09:29:42;15.10;;;8.52;;
75459;SDS011;64039;53.060;9.342;2024-02-26T09:32:08;13.10;;;8.23;;
75459;SDS011;64039;53.060;9.342;2024-02-26T09:34:33;12.07;;;8.32;;
75459;SDS011;64039;53.060;9.342;2024-02-26T09:36:59;11.27;;;7.70;;
75459;SDS011;64039;53.060;9.342;2024-02-26T09:39:25;11.32;;;7.53;;
75459;SDS011;64039;53.060;9.342;2024-02-26T09:41:52;10.35;;;6.85;;
75459;SDS011;64039;53.060;9.342;2024-02-26T09:44:18;10.73;;;7.28;;
75459;SDS011;64039;53.060;9.342;2024-02-26T09:46:48;11.15;;;7.10;;
75459;SDS011;64039;53.060;9.342;2024-02-26T09:49:17;10.25;;;6.78;;
75459;SDS011;64039;53.060;9.342;2024-02-26T09:51:44;9.73;;;6.15;;
75459;SDS011;64039;53.060;9.342;2024-02-26T09:54:10;10.02;;;6.60;;
75459;SDS011;64039;53.060;9.342;2024-02-26T09:56:38;9.85;;;6.15;;
75459;SDS011;64039;53.060;9.342;2024-02-26T09:59:10;9.63;;;6.85;;
75459;SDS011;64039;53.060;9.342;2024-02-26T10:01:39;8.20;;;5.70;;
75459;SDS011;64039;53.060;9.342;2024-02-26T10:04:07;9.20;;;5.93;;
75459;SDS011;64039;53.060;9.342;2024-02-26T10:06:35;9.82;;;6.22;;
75459;SDS011;64039;53.060;9.342;2024-02-26T10:09:02;9.68;;;6.10;;
75459;SDS011;64039;53.060;9.342;2024-02-26T10:11:31;8.60;;;5.97;;
75459;SDS011;64039;53.060;9.342;2024-02-26T10:13:57;10.10;;;6.13;;
75459;SDS011;64039;53.060;9.342;2024-02-26T10:16:23;10.63;;;5.60;;
75459;SDS011;64039;53.060;9.342;2024-02-26T10:18:50;12.43;;;5.53;;
75459;SDS011;64039;53.060;9.342;2024-02-26T10:21:21;8.95;;;5.68;;
75459;SDS011;64039;53.060;9.342;2024-02-26T10:23:47;9.45;;;5.55;;
75459;SDS011;64039;53.060;9.342;2024-02-26T10:26:14;8.45;;;5.15;;
75459;SDS011;64039;53.060;9.342;2024-02-26T10:28:44;10.05;;;5.22;;
75459;SDS011;64039;53.060;9.342;2024-02-26T10:31:10;9.40;;;5.20;;
75459;SDS011;64039;53.060;9.342;2024-02-26T10:33:37;8.25;;;4.78;;
75459;SDS011;64039;53.060;9.342;2024-02-26T10:36:05;7.75;;;4.88;;
75459;SDS011;64039;53.060;9.342;2024-02-26T10:38:32;7.13;;;4.75;;
75459;SDS011;64039;53.060;9.342;2024-02-26T10:40:59;8.65;;;5.28;;
75459;SDS011;64039;53.060;9.342;2024-02-26T10:43:27;9.48;;;5.10;;
75459;SDS011;64039;53.060;9.342;2024-02-26T10:45:54;8.38;;;4.97;;
75459;SDS011;64039;53.060;9.342;2024-02-26T10:48:20;7.90;;;4.78;;
75459;SDS011;64039;53.060;9.342;2024-02-26T10:50:46;6.60;;;4.38;;
75459;SDS011;64039;53.060;9.342;2024-02-26T10:53:15;6.50;;;4.10;;
75459;SDS011;64039;53.060;9.342;2024-02-26T10:55:43;7.05;;;4.70;;
75459;SDS011;64039;53.060;9.342;2024-02-26T10:58:13;6.03;;;4.30;;
75459;SDS011;64039;53.060;9.342;2024-02-26T11:00:39;6.20;;;4.03;;
75459;SDS011;64039;53.060;9.342;2024-02-26T11:03:06;6.25;;;3.63;;
75459;SDS011;64039;53.060;9.342;2024-02-26T11:05:33;6.05;;;3.95;;
75459;SDS011;64039;53.060;9.342;2024-02-26T11:07:59;6.60;;;3.90;;
75459;SDS011;64039;53.060;9.342;2024-02-26T11:10:26;4.80;;;3.30;;
75459;SDS011;64039;53.060;9.342;2024-02-26T11:12:52;4.47;;;3.22;;
75459;SDS011;64039;53.060;9.342;2024-02-26T11:15:20;4.72;;;3.42;;
75459;SDS011;64039;53.060;9.342;2024-02-26T11:17:46;5.55;;;3.00;;
75459;SDS011;64039;53.060;9.342;2024-02-26T11:20:11;4.40;;;2.80;;
75459;SDS011;64039;53.060;9.342;2024-02-26T11:22:38;4.32;;;2.90;;
75459;SDS011;64039;53.060;9.342;2024-02-26T11:25:04;3.95;;;2.65;;
75459;SDS011;64039;53.060;9.342;2024-02-26T11:27:30;3.60;;;2.75;;
75459;SDS011;64039;53.060;9.342;2024-02-26T11:30:02;3.25;;;2.50;;
75459;SDS011;64039;53.060;9.342;2024-02-26T11:32:30;3.67;;;2.50;;
75459;SDS011;64039;53.060;9.342;2024-02-26T11:34:56;4.00;;;2.50;;
75459;SDS011;64039;53.060;9.342;2024-02-26T11:37:23;3.47;;;2.30;;
75459;SDS011;64039;53.060;9.342;2024-02-26T11:39:51;3.53;;;2.60;;
75459;SDS011;64039;53.060;9.342;2024-02-26T11:42:16;3.65;;;2.30;;
75459;SDS011;64039;53.060;9.342;2024-02-26T11:44:43;3.58;;;2.40;;
75459;SDS011;64039;53.060;9.342;2024-02-26T11:47:12;4.10;;;2.20;;
75459;SDS011;64039;53.060;9.342;2024-02-26T11:49:38;3.92;;;2.47;;
75459;SDS011;64039;53.060;9.342;2024-02-26T11:52:05;2.80;;;2.20;;
75459;SDS011;64039;53.060;9.342;2024-02-26T11:54:40;3.20;;;2.22;;
75459;SDS011;64039;53.060;9.342;2024-02-26T11:57:28;3.72;;;2.30;;
75459;SDS011;64039;53.060;9.342;2024-02-26T12:00:28;4.28;;;2.20;;
75459;SDS011;64039;53.060;9.342;2024-02-26T12:02:55;6.95;;;3.85;;
75459;SDS011;64039;53.060;9.342;2024-02-26T12:05:25;4.57;;;2.35;;
75459;SDS011;64039;53.060;9.342;2024-02-26T12:08:03;3.30;;;2.45;;
75459;SDS011;64039;53.060;9.342;2024-02-26T12:10:40;4.28;;;2.92;;
75459;SDS011;64039;53.060;9.342;2024-02-26T12:13:09;4.45;;;2.55;;
75459;SDS011;64039;53.060;9.342;2024-02-26T12:15:39;4.43;;;2.72;;
75459;SDS011;64039;53.060;9.342;2024-02-26T12:18:08;3.75;;;2.40;;
75459;SDS011;64039;53.060;9.342;2024-02-26T12:20:35;3.83;;;2.45;;
75459;SDS011;64039;53.060;9.342;2024-02-26T12:23:02;2.92;;;2.15;;
75459;SDS011;64039;53.060;9.342;2024-02-26T12:25:31;3.33;;;2.25;;
75459;SDS011;64039;53.060;9.342;2024-02-26T12:27:58;3.90;;;2.50;;
75459;SDS011;64039;53.060;9.342;2024-02-26T12:30:24;4.07;;;2.53;;
75459;SDS011;64039;53.060;9.342;2024-02-26T12:32:55;3.03;;;2.30;;
75459;SDS011;64039;53.060;9.342;2024-02-26T12:35:25;3.85;;;2.33;;
75459;SDS011;64039;53.060;9.342;2024-02-26T12:37:52;3.08;;;2.08;;
75459;SDS011;64039;53.060;9.342;2024-02-26T12:40:18;5.30;;;2.00;;
75459;SDS011;64039;53.060;9.342;2024-02-26T12:42:44;3.10;;;2.03;;
75459;SDS011;64039;53.060;9.342;2024-02-26T12:45:11;3.47;;;2.45;;
75459;SDS011;64039;53.060;9.342;2024-02-26T12:47:44;7.30;;;4.45;;
75459;SDS011;64039;53.060;9.342;2024-02-26T12:50:15;3.75;;;2.40;;
75459;SDS011;64039;53.060;9.342;2024-02-26T12:52:41;4.93;;;2.40;;
75459;SDS011;64039;53.060;9.342;2024-02-26T12:55:09;3.83;;;2.60;;
75459;SDS011;64039;53.060;9.342;2024-02-26T12:57:45;4.63;;;2.42;;
75459;SDS011;64039;53.060;9.342;2024-02-26T13:00:15;3.95;;;2.10;;
75459;SDS011;64039;53.060;9.342;2024-02-26T13:02:44;5.20;;;2.40;;
75459;SDS011;64039;53.060;9.342;2024-02-26T13:05:10;4.70;;;2.50;;
75459;SDS011;64039;53.060;9.342;2024-02-26T13:07:40;3.22;;;2.20;;
75459;SDS011;64039;53.060;9.342;2024-02-26T13:10:07;2.75;;;2.08;;
75459;SDS011;64039;53.060;9.342;2024-02-26T13:12:33;3.45;;;2.58;;
75459;SDS011;64039;53.060;9.342;2024-02-26T13:14:59;3.50;;;2.45;;
75459;SDS011;64039;53.060;9.342;2024-02-26T13:17:25;4.38;;;2.60;;
75459;SDS011;64039;53.060;9.342;2024-02-26T13:19:53;5.18;;;2.95;;
75459;SDS011;64039;53.060;9.342;2024-02-26T13:22:22;5.75;;;2.97;;
75459;SDS011;64039;53.060;9.342;2024-02-26T13:24:54;5.05;;;2.95;;
75459;SDS011;64039;53.060;9.342;2024-02-26T13:27:24;5.93;;;3.30;;
75459;SDS011;64039;53.060;9.342;2024-02-26T13:32:52;12.23;;;6.78;;
75459;SDS011;64039;53.060;9.342;2024-02-26T13:35:20;4.75;;;3.20;;
75459;SDS011;64039;53.060;9.342;2024-02-26T13:37:46;4.28;;;3.10;;
75459;SDS011;64039;53.060;9.342;2024-02-26T13:40:11;4.68;;;3.30;;
75459;SDS011;64039;53.060;9.342;2024-02-26T13:42:37;4.85;;;3.38;;
75459;SDS011;64039;53.060;9.342;2024-02-26T13:45:04;6.00;;;3.80;;
75459;SDS011;64039;53.060;9.342;2024-02-26T13:47:33;6.38;;;4.63;;
75459;SDS011;64039;53.060;9.342;2024-02-26T13:49:59;7.80;;;4.90;;
75459;SDS011;64039;53.060;9.342;2024-02-26T13:52:25;8.73;;;5.03;;
75459;SDS011;64039;53.060;9.342;2024-02-26T13:54:51;8.20;;;5.32;;
75459;SDS011;64039;53.060;9.342;2024-02-26T13:57:17;8.93;;;5.80;;
75459;SDS011;64039;53.060;9.342;2024-02-26T13:59:43;10.73;;;6.38;;
75459;SDS011;64039;53.060;9.342;2024-02-26T14:02:09;10.05;;;6.68;;
75459;SDS011;64039;53.060;9.342;2024-02-26T14:04:35;12.35;;;6.57;;
75459;SDS011;64039;53.060;9.342;2024-02-26T14:07:01;10.60;;;6.70;;
75459;SDS011;64039;53.060;9.342;2024-02-26T14:09:27;13.18;;;7.13;;
75459;SDS011;64039;53.060;9.342;2024-02-26T14:11:52;10.70;;;7.20;;
75459;SDS011;64039;53.060;9.342;2024-02-26T14:14:18;12.43;;;7.57;;
75459;SDS011;64039;53.060;9.342;2024-02-26T14:16:43;11.15;;;7.07;;
75459;SDS011;64039;53.060;9.342;2024-02-26T14:19:08;11.48;;;7.20;;
75459;SDS011;64039;53.060;9.342;2024-02-26T14:21:34;12.77;;;7.80;;
75459;SDS011;64039;53.060;9.342;2024-02-26T14:24:00;12.88;;;7.78;;
75459;SDS011;64039;53.060;9.342;2024-02-26T14:26:25;11.02;;;7.53;;
75459;SDS011;64039;53.060;9.342;2024-02-26T14:28:51;12.32;;;7.10;;
75459;SDS011;64039;53.060;9.342;2024-02-26T14:31:19;10.98;;;7.05;;
75459;SDS011;64039;53.060;9.342;2024-02-26T14:33:45;11.88;;;7.32;;
75459;SDS011;64039;53.060;9.342;2024-02-26T14:36:11;10.63;;;6.93;;
75459;SDS011;64039;53.060;9.342;2024-02-26T14:38:37;11.13;;;7.05;;
75459;SDS011;64039;53.060;9.342;2024-02-26T14:41:04;12.63;;;7.22;;